createdAt,value
2022-11-25T00:00:52.242Z,26.98
2022-11-25T00:03:20.258Z,27.52
2022-11-25T00:05:48.169Z,32.75
2022-11-25T00:08:16.044Z,32.33
2022-11-25T00:10:44.069Z,36.00
2022-11-25T00:13:11.970Z,35.30
2022-11-25T00:15:39.854Z,33.20
2022-11-25T00:18:09.111Z,36.30
2022-11-25T00:20:38.861Z,37.25
2022-11-25T00:23:06.771Z,43.33
2022-11-25T00:25:34.645Z,40.30
2022-11-25T00:28:02.499Z,43.00
2022-11-25T00:30:30.467Z,37.80
2022-11-25T00:32:58.292Z,34.58
2022-11-25T00:35:28.823Z,42.75
2022-11-25T00:37:57.148Z,31.75
2022-11-25T00:40:25.369Z,42.92
2022-11-25T00:43:10.619Z,35.35
2022-11-25T00:45:38.890Z,45.35
2022-11-25T00:48:07.178Z,36.25
2022-11-25T00:50:36.421Z,39.47
2022-11-25T00:53:04.272Z,50.30
2022-11-25T00:55:52.237Z,37.55
2022-11-25T00:58:20.163Z,39.58
2022-11-25T01:00:48.111Z,45.30
2022-11-25T01:03:16.158Z,42.42
2022-11-25T01:05:45.417Z,36.03
2022-11-25T01:08:15.501Z,35.70
2022-11-25T01:10:43.428Z,44.03
2022-11-25T01:13:11.401Z,39.63
2022-11-25T01:15:39.362Z,36.50
2022-11-25T01:18:07.341Z,39.80
2022-11-25T01:20:35.329Z,47.67
2022-11-25T01:23:05.005Z,39.75
2022-11-25T01:25:33.071Z,38.63
2022-11-25T01:28:01.189Z,36.67
2022-11-25T01:30:29.146Z,45.50
2022-11-25T01:32:57.238Z,38.20
2022-11-25T01:35:27.938Z,45.97
2022-11-25T01:37:55.879Z,41.60
2022-11-25T01:40:26.623Z,41.45
2022-11-25T01:42:54.529Z,43.15
2022-11-25T01:45:36.612Z,40.92
2022-11-25T01:48:10.179Z,38.60
2022-11-25T01:50:38.252Z,40.28
2022-11-25T01:53:08.164Z,41.22
2022-11-25T01:55:40.945Z,30.15
2022-11-25T01:58:10.430Z,44.17
2022-11-25T02:00:40.169Z,39.72
2022-11-25T02:03:09.120Z,38.05
2022-11-25T02:05:40.105Z,41.08
2022-11-25T02:08:08.903Z,70.75
2022-11-25T02:10:39.565Z,68.93
2022-11-25T02:13:07.435Z,60.67
2022-11-25T02:15:37.662Z,57.00
2022-11-25T02:18:05.912Z,66.40
2022-11-25T02:20:33.912Z,55.08
2022-11-25T02:23:06.141Z,59.28
2022-11-25T02:25:36.656Z,35.70
2022-11-25T02:28:10.888Z,69.65
2022-11-25T02:30:39.098Z,30.08
2022-11-25T02:33:07.364Z,56.58
2022-11-25T02:35:37.354Z,52.97
2022-11-25T02:38:09.408Z,90.35
2022-11-25T02:40:43.633Z,71.95
2022-11-25T02:43:11.610Z,37.25
2022-11-25T02:45:50.188Z,50.70
2022-11-25T02:48:26.574Z,66.90
2022-11-25T02:51:02.912Z,85.73
2022-11-25T02:53:31.457Z,47.28
2022-11-25T02:56:01.292Z,53.85
2022-11-25T02:58:30.510Z,71.57
2022-11-25T03:00:58.507Z,59.10
2022-11-25T03:03:26.619Z,45.65
2022-11-25T03:05:54.507Z,52.45
2022-11-25T03:08:22.389Z,72.90
2022-11-25T03:10:50.281Z,38.17
2022-11-25T03:13:19.668Z,48.08
2022-11-25T03:15:48.239Z,33.67
2022-11-25T03:18:16.168Z,30.25
2022-11-25T03:20:44.144Z,44.30
2022-11-25T03:23:12.018Z,42.85
2022-11-25T03:25:39.905Z,30.73
2022-11-25T03:28:08.457Z,37.85
2022-11-25T03:30:37.774Z,35.47
2022-11-25T03:33:06.489Z,27.83
2022-11-25T03:35:34.786Z,14.40
2022-11-25T03:38:02.656Z,32.28
2022-11-25T03:40:34.429Z,49.38
2022-11-25T03:43:02.356Z,24.75
2022-11-25T03:45:30.340Z,25.50
2022-11-25T03:48:02.348Z,32.90
2022-11-25T03:50:30.234Z,33.33
2022-11-25T03:52:59.032Z,17.45
2022-11-25T03:55:27.385Z,31.25
2022-11-25T03:57:56.361Z,10.98
2022-11-25T04:00:25.924Z,25.05
2022-11-25T04:03:02.776Z,19.38
2022-11-25T04:05:33.224Z,23.55
2022-11-25T04:08:06.360Z,19.70
2022-11-25T04:10:35.661Z,18.88
2022-11-25T04:13:04.287Z,25.08
2022-11-25T04:15:39.201Z,23.48
2022-11-25T04:18:09.744Z,30.42
2022-11-25T04:20:37.636Z,18.65
2022-11-25T04:23:08.646Z,42.53
2022-11-25T04:25:43.024Z,14.88
2022-11-25T04:28:21.271Z,31.15
2022-11-25T04:30:49.151Z,24.20
2022-11-25T04:33:18.425Z,16.55
2022-11-25T04:35:48.517Z,33.53
2022-11-25T04:38:16.423Z,22.80
2022-11-25T04:40:44.596Z,25.10
2022-11-25T04:43:15.508Z,33.20
2022-11-25T04:46:17.418Z,27.15
2022-11-25T04:48:50.925Z,28.83
2022-11-25T04:51:20.041Z,24.73
2022-11-25T04:53:51.604Z,18.60
2022-11-25T04:56:20.870Z,24.35
2022-11-25T04:59:09.202Z,33.67
2022-11-25T05:01:41.031Z,19.98
2022-11-25T05:04:33.579Z,20.92
2022-11-25T05:07:01.721Z,19.20
2022-11-25T05:09:30.021Z,25.70
2022-11-25T05:12:12.533Z,38.05
2022-11-25T05:14:40.684Z,29.80
2022-11-25T05:17:09.266Z,27.25
2022-11-25T05:19:38.633Z,22.92
2022-11-25T05:22:07.037Z,27.77
2022-11-25T05:24:35.213Z,37.28
2022-11-25T05:27:03.899Z,21.20
2022-11-25T05:29:31.866Z,55.58
2022-11-25T05:31:59.826Z,21.05
2022-11-25T05:34:27.799Z,65.68
2022-11-25T05:36:57.165Z,78.75
2022-11-25T05:39:25.205Z,27.23
2022-11-25T05:42:18.395Z,38.15
2022-11-25T05:44:46.854Z,42.53
2022-11-25T05:47:14.690Z,41.72
2022-11-25T05:49:43.397Z,45.47
2022-11-25T05:52:12.852Z,35.85
2022-11-25T05:54:52.216Z,31.70
2022-11-25T05:57:24.113Z,35.45
2022-11-25T05:59:55.997Z,17.42
2022-11-25T06:02:42.581Z,16.15
2022-11-25T06:05:13.647Z,63.92
2022-11-25T06:07:42.985Z,31.63
2022-11-25T06:10:11.743Z,46.67
2022-11-25T06:12:41.801Z,25.15
2022-11-25T06:15:11.299Z,33.10
2022-11-25T06:17:40.542Z,27.83
2022-11-25T06:20:17.333Z,32.22
2022-11-25T06:22:48.167Z,27.25
2022-11-25T06:25:21.262Z,21.02
2022-11-25T06:28:11.998Z,21.00
2022-11-25T06:30:38.691Z,29.05
2022-11-25T06:33:19.381Z,16.27
2022-11-25T06:35:48.615Z,25.23
2022-11-25T06:38:17.840Z,17.83
2022-11-25T06:40:45.679Z,32.17
2022-11-25T06:43:13.641Z,18.85
2022-11-25T06:45:41.567Z,17.42
2022-11-25T06:48:09.472Z,25.38
2022-11-25T06:50:37.283Z,28.23
2022-11-25T06:53:05.351Z,19.92
2022-11-25T06:55:34.851Z,28.42
2022-11-25T06:58:28.419Z,22.80
2022-11-25T07:00:51.034Z,40.42
2022-11-25T07:03:19.030Z,15.20
2022-11-25T07:05:47.002Z,22.25
2022-11-25T07:08:14.857Z,28.10
2022-11-25T07:10:44.170Z,23.15
2022-11-25T07:13:12.093Z,27.65
2022-11-25T07:15:40.005Z,13.18
2022-11-25T07:18:07.900Z,17.48
2022-11-25T07:20:36.097Z,19.23
2022-11-25T07:23:03.941Z,22.38
2022-11-25T07:25:31.886Z,32.42
2022-11-25T07:28:01.295Z,24.52
2022-11-25T07:31:21.540Z,23.13
2022-11-25T07:33:17.231Z,21.52
2022-11-25T07:35:45.466Z,25.75
2022-11-25T07:38:13.446Z,29.25
2022-11-25T07:40:41.381Z,20.60
2022-11-25T07:43:10.617Z,16.15
2022-11-25T07:45:39.551Z,19.92
2022-11-25T07:48:09.733Z,30.13
2022-11-25T07:50:38.458Z,19.58
2022-11-25T07:53:06.300Z,21.95
2022-11-25T07:55:34.204Z,19.17
2022-11-25T07:58:02.129Z,14.73
2022-11-25T08:00:31.355Z,18.00
2022-11-25T08:02:59.289Z,25.63
2022-11-25T08:05:27.111Z,15.13
2022-11-25T08:07:55.093Z,23.00
2022-11-25T08:10:23.042Z,22.25
2022-11-25T08:12:50.963Z,16.83
2022-11-25T08:15:19.489Z,14.18
2022-11-25T08:17:52.408Z,20.42
2022-11-25T08:20:20.350Z,21.50
2022-11-25T08:22:48.297Z,25.08
2022-11-25T08:25:16.969Z,16.67
2022-11-25T08:27:44.856Z,20.35
2022-11-25T08:30:13.719Z,16.15
2022-11-25T08:32:41.625Z,16.38
2022-11-25T08:35:11.028Z,15.43
2022-11-25T08:37:39.039Z,21.70
2022-11-25T08:40:08.210Z,16.50
2022-11-25T08:42:36.137Z,18.02
2022-11-25T08:45:04.979Z,27.75
2022-11-25T08:47:32.986Z,19.45
2022-11-25T08:50:01.337Z,28.35
2022-11-25T08:52:30.585Z,27.10
2022-11-25T08:54:58.461Z,31.75
2022-11-25T08:57:26.353Z,26.70
2022-11-25T08:59:54.288Z,32.28
2022-11-25T09:02:22.241Z,21.52
2022-11-25T09:04:50.135Z,34.42
2022-11-25T09:07:18.153Z,21.42
2022-11-25T09:09:47.579Z,21.20
2022-11-25T09:12:15.480Z,34.67
2022-11-25T09:14:43.500Z,24.02
2022-11-25T09:17:11.489Z,30.67
2022-11-25T09:19:39.436Z,19.52
2022-11-25T09:22:08.414Z,22.00
2022-11-25T09:24:36.532Z,20.42
2022-11-25T09:27:05.921Z,31.30
2022-11-25T09:29:34.025Z,26.52
2022-11-25T09:32:02.134Z,24.83
2022-11-25T09:34:30.043Z,23.80
2022-11-25T09:36:57.925Z,26.42
2022-11-25T09:39:29.564Z,25.42
2022-11-25T09:42:30.745Z,26.08
2022-11-25T09:45:24.458Z,20.55
2022-11-25T09:48:01.861Z,28.60
2022-11-25T09:50:40.754Z,22.40
2022-11-25T09:53:15.619Z,28.98
2022-11-25T09:55:46.074Z,29.80
2022-11-25T09:58:25.338Z,22.73
2022-11-25T10:00:53.934Z,30.42
2022-11-25T10:03:29.285Z,28.50
2022-11-25T10:06:01.179Z,30.77
2022-11-25T10:08:31.469Z,24.25
2022-11-25T10:11:02.618Z,24.10
2022-11-25T10:13:36.258Z,29.98
2022-11-25T10:16:06.785Z,36.25
2022-11-25T10:18:40.385Z,26.42
2022-11-25T10:21:11.340Z,25.90
2022-11-25T10:23:40.522Z,29.38
2022-11-25T10:26:13.859Z,30.17
2022-11-25T10:28:49.230Z,32.13
2022-11-25T10:31:19.097Z,28.67
2022-11-25T10:33:48.944Z,29.85
2022-11-25T10:36:19.627Z,27.35
2022-11-25T10:38:56.114Z,27.77
2022-11-25T10:41:25.973Z,26.65
2022-11-25T10:43:55.220Z,32.70
2022-11-25T10:46:49.724Z,25.13
2022-11-25T10:49:22.981Z,27.33
2022-11-25T10:51:51.905Z,27.10
2022-11-25T10:54:27.265Z,28.42
2022-11-25T10:56:57.853Z,29.10
2022-11-25T10:59:32.390Z,29.42
2022-11-25T11:02:20.177Z,23.25
2022-11-25T11:04:57.488Z,26.63
2022-11-25T11:07:26.578Z,25.40
2022-11-25T11:09:55.243Z,26.17
2022-11-25T11:12:25.491Z,27.38
2022-11-25T11:15:15.478Z,26.38
2022-11-25T11:17:43.328Z,26.10
2022-11-25T11:20:22.202Z,27.35
2022-11-25T11:22:55.751Z,28.30
2022-11-25T11:25:32.608Z,27.98
2022-11-25T11:28:01.362Z,29.80
2022-11-25T11:30:31.822Z,26.83
2022-11-25T11:33:05.274Z,30.27
2022-11-25T11:35:45.652Z,27.70
2022-11-25T11:38:25.946Z,26.85
2022-11-25T11:40:56.535Z,24.83
2022-11-25T11:43:34.644Z,25.75
2022-11-25T11:46:14.546Z,29.33
2022-11-25T11:48:51.534Z,31.33
2022-11-25T11:51:26.372Z,16.10
2022-11-25T11:56:36.263Z,30.48
2022-11-25T11:59:29.218Z,25.17
2022-11-25T12:02:09.951Z,32.47
2022-11-25T12:04:41.446Z,30.65
2022-11-25T12:07:14.757Z,33.97
2022-11-25T12:09:46.954Z,33.63
2022-11-25T12:12:19.121Z,29.65
2022-11-25T12:14:50.117Z,30.60
2022-11-25T12:17:22.007Z,39.45
2022-11-25T12:19:54.195Z,40.28
2022-11-25T12:22:25.965Z,35.90
2022-11-25T12:24:59.434Z,34.75
2022-11-25T12:27:30.221Z,43.50
2022-11-25T12:30:01.850Z,33.40
2022-11-25T12:32:58.888Z,36.67
2022-11-25T12:35:35.466Z,30.48
2022-11-25T12:38:06.870Z,37.03
2022-11-25T12:40:37.386Z,36.50
2022-11-25T12:43:18.368Z,38.03
2022-11-25T12:45:47.648Z,33.92
2022-11-25T12:48:21.327Z,37.50
2022-11-25T12:50:57.948Z,35.13
2022-11-25T12:53:32.447Z,38.72
2022-11-25T12:56:01.242Z,42.78
2022-11-25T12:58:44.475Z,39.03
2022-11-25T13:04:16.053Z,31.88
2022-11-25T13:07:23.710Z,35.40
2022-11-25T13:10:21.478Z,34.88
2022-11-25T13:12:59.122Z,32.83
2022-11-25T13:15:28.920Z,37.58
2022-11-25T13:18:00.251Z,32.00
2022-11-25T13:20:48.736Z,39.58
2022-11-25T13:23:25.727Z,40.08
2022-11-25T13:25:55.841Z,41.00
2022-11-25T13:28:30.492Z,43.38
2022-11-25T13:31:18.737Z,40.88
2022-11-25T13:34:07.966Z,49.47
2022-11-25T13:36:47.960Z,38.03
2022-11-25T13:39:17.512Z,41.28
2022-11-25T13:41:48.319Z,39.83
2022-11-25T13:44:22.707Z,36.95
2022-11-25T13:46:52.576Z,37.50
2022-11-25T13:49:33.071Z,36.70
2022-11-25T13:52:05.004Z,37.50
2022-11-25T13:54:36.948Z,32.53
2022-11-25T13:57:26.826Z,39.00
2022-11-25T13:59:57.852Z,39.58
2022-11-25T14:02:44.784Z,42.92
2022-11-25T14:05:56.612Z,40.58
2022-11-25T14:08:38.857Z,35.20
2022-11-25T14:11:43.860Z,35.80
2022-11-25T14:14:23.752Z,33.92
2022-11-25T14:17:02.506Z,38.58
2022-11-25T14:19:51.963Z,43.20
2022-11-25T14:22:32.169Z,37.15
2022-11-25T14:25:12.427Z,41.00
2022-11-25T14:27:40.624Z,40.53
2022-11-25T14:30:10.258Z,29.55
2022-11-25T14:32:42.637Z,34.30
2022-11-25T14:35:13.964Z,32.28
2022-11-25T14:37:45.379Z,35.83
2022-11-25T14:40:19.645Z,28.30
2022-11-25T14:42:49.453Z,28.35
2022-11-25T14:45:25.989Z,31.65
2022-11-25T14:47:53.934Z,32.35
2022-11-25T14:50:38.259Z,36.65
2022-11-25T14:53:08.138Z,32.35
2022-11-25T14:55:38.116Z,31.38
2022-11-25T14:58:05.975Z,31.70
2022-11-25T15:00:33.814Z,30.05
2022-11-25T15:03:02.861Z,24.38
2022-11-25T15:05:33.890Z,34.03
2022-11-25T15:08:04.394Z,36.88
2022-11-25T15:10:40.863Z,35.78
2022-11-25T15:13:14.409Z,28.33
2022-11-25T15:15:45.906Z,30.70
2022-11-25T15:18:18.769Z,34.88
2022-11-25T15:20:48.883Z,28.40
2022-11-25T15:23:21.115Z,31.70
2022-11-25T15:25:54.441Z,33.08
2022-11-25T15:28:22.336Z,32.67
2022-11-25T15:30:58.356Z,30.40
2022-11-25T15:33:26.928Z,32.83
2022-11-25T15:35:55.053Z,28.27
2022-11-25T15:38:37.589Z,33.42
2022-11-25T15:41:07.704Z,30.10
2022-11-25T15:43:37.244Z,33.42
2022-11-25T15:46:07.532Z,28.98
2022-11-25T15:48:39.194Z,29.73
2022-11-25T15:51:08.405Z,28.90
2022-11-25T15:53:39.158Z,33.30
2022-11-25T15:56:10.736Z,29.13
2022-11-25T15:58:43.606Z,30.38
2022-11-25T16:01:22.948Z,31.90
2022-11-25T16:03:51.498Z,38.28
2022-11-25T16:06:23.754Z,28.15
2022-11-25T16:08:55.737Z,26.45
2022-11-25T16:11:25.888Z,29.52
2022-11-25T16:13:55.366Z,29.98
2022-11-25T16:16:28.852Z,28.50
2022-11-25T16:19:21.430Z,28.15
2022-11-25T16:21:55.429Z,30.17
2022-11-25T16:24:32.479Z,27.73
2022-11-25T16:27:04.589Z,29.63
2022-11-25T16:29:34.906Z,23.63
2022-11-25T16:32:14.796Z,26.33
2022-11-25T16:34:42.827Z,20.60
2022-11-25T16:37:10.761Z,27.50
2022-11-25T16:39:39.324Z,23.55
2022-11-25T16:42:17.145Z,21.10
2022-11-25T16:44:47.977Z,25.35
2022-11-25T16:47:16.192Z,23.05
2022-11-25T16:49:44.193Z,22.38
2022-11-25T16:52:12.038Z,24.23
2022-11-25T16:54:39.879Z,24.38
2022-11-25T16:57:15.003Z,25.00
2022-11-25T16:59:44.361Z,24.23
2022-11-25T17:02:15.956Z,25.48
2022-11-25T17:04:43.927Z,27.00
2022-11-25T17:10:01.425Z,25.27
2022-11-25T17:12:33.030Z,29.70
2022-11-25T17:15:01.381Z,23.25
2022-11-25T17:17:29.841Z,21.67
2022-11-25T17:19:57.793Z,23.15
2022-11-25T17:22:27.940Z,26.17
2022-11-25T17:24:57.467Z,26.00
2022-11-25T17:27:27.708Z,23.50
2022-11-25T17:29:57.919Z,23.90
2022-11-25T17:32:26.094Z,24.25
2022-11-25T17:34:54.127Z,19.25
2022-11-25T17:37:23.895Z,24.15
2022-11-25T17:39:52.652Z,24.10
2022-11-25T17:42:24.991Z,26.05
2022-11-25T17:44:54.369Z,21.73
2022-11-25T17:47:23.891Z,22.08
2022-11-25T17:49:52.041Z,21.98
2022-11-25T17:52:19.892Z,20.67
2022-11-25T17:54:47.755Z,17.70
2022-11-25T17:57:18.749Z,22.83
2022-11-25T17:59:46.618Z,22.20
2022-11-25T18:02:19.498Z,22.85
2022-11-25T18:07:16.964Z,22.50
2022-11-25T18:09:45.961Z,20.92
2022-11-25T18:12:17.113Z,23.98
2022-11-25T18:14:46.195Z,19.88
2022-11-25T18:17:16.619Z,21.08
2022-11-25T18:19:46.581Z,22.80
2022-11-25T18:22:20.457Z,22.42
2022-11-25T18:24:48.534Z,22.33
2022-11-25T18:27:22.847Z,21.33
2022-11-25T18:29:50.820Z,23.25
2022-11-25T18:32:18.706Z,26.08
2022-11-25T18:34:46.674Z,25.70
2022-11-25T18:37:14.604Z,24.45
2022-11-25T18:39:43.864Z,24.67
2022-11-25T18:42:24.869Z,25.52
2022-11-25T18:44:53.103Z,18.92
2022-11-25T18:47:20.902Z,22.02
2022-11-25T18:49:53.880Z,20.55
2022-11-25T18:52:23.616Z,22.75
2022-11-25T18:54:52.946Z,20.38
2022-11-25T18:57:21.089Z,23.92
2022-11-25T19:00:00.215Z,22.98
2022-11-25T19:02:37.163Z,22.50
2022-11-25T19:05:15.389Z,23.65
2022-11-25T19:07:43.362Z,25.02
2022-11-25T19:10:14.066Z,23.13
2022-11-25T19:12:44.494Z,23.55
2022-11-25T19:15:13.499Z,22.90
2022-11-25T19:17:42.347Z,24.27
2022-11-25T19:20:15.334Z,25.75
2022-11-25T19:25:11.151Z,23.83
2022-11-25T19:27:43.102Z,26.73
2022-11-25T19:30:16.371Z,21.65
2022-11-25T19:32:45.217Z,18.65
2022-11-25T19:35:16.541Z,23.50
2022-11-25T19:37:44.694Z,22.10
2022-11-25T19:40:18.288Z,24.67
2022-11-25T19:42:48.411Z,23.88
2022-11-25T19:45:18.173Z,21.48
2022-11-25T19:47:48.110Z,22.77
2022-11-25T19:50:21.597Z,22.23
2022-11-25T19:55:20.608Z,22.63
2022-11-25T19:57:50.617Z,22.00
2022-11-25T20:00:20.845Z,18.38
2022-11-25T20:02:51.136Z,17.90
2022-11-25T20:05:21.753Z,21.60
2022-11-25T20:07:49.890Z,20.55
2022-11-25T20:10:19.793Z,18.50
2022-11-25T20:12:49.561Z,19.52
2022-11-25T20:15:17.632Z,19.05
2022-11-25T20:17:47.859Z,18.00
2022-11-25T20:20:18.909Z,20.33
2022-11-25T20:22:53.748Z,20.35
2022-11-25T20:25:21.772Z,18.40
2022-11-25T20:27:51.075Z,20.48
2022-11-25T20:30:20.947Z,23.27
2022-11-25T20:32:49.067Z,18.90
2022-11-25T20:35:17.300Z,19.25
2022-11-25T20:38:00.327Z,23.58
2022-11-25T20:40:33.487Z,20.13
2022-11-25T20:43:02.779Z,22.50
2022-11-25T20:45:30.700Z,18.02
2022-11-25T20:47:59.114Z,23.00
2022-11-25T20:50:29.903Z,23.10
2022-11-25T20:52:58.109Z,21.05
2022-11-25T20:55:27.045Z,18.98
2022-11-25T20:57:54.913Z,25.30
2022-11-25T21:00:26.726Z,26.10
2022-11-25T21:02:56.943Z,22.50
2022-11-25T21:05:25.148Z,26.10
2022-11-25T21:07:54.472Z,24.90
2022-11-25T21:10:25.364Z,21.63
2022-11-25T21:12:53.353Z,21.88
2022-11-25T21:15:24.656Z,23.52
2022-11-25T21:17:52.935Z,22.27
2022-11-25T21:20:21.103Z,21.50
2022-11-25T21:22:51.446Z,19.65
2022-11-25T21:25:21.599Z,22.73
2022-11-25T21:27:50.409Z,20.70
2022-11-25T21:30:20.139Z,20.13
2022-11-25T21:32:49.478Z,23.10
2022-11-25T21:35:17.343Z,23.80
2022-11-25T21:37:45.766Z,21.10
2022-11-25T21:40:32.153Z,17.95
2022-11-25T21:43:00.324Z,33.15
2022-11-25T21:45:28.169Z,20.17
2022-11-25T21:47:57.446Z,17.92
2022-11-25T21:50:29.240Z,19.20
2022-11-25T21:52:57.317Z,21.27
2022-11-25T21:55:25.144Z,23.80
2022-11-25T21:57:52.972Z,19.95
2022-11-25T22:00:25.737Z,22.25
2022-11-25T22:02:53.917Z,21.83
2022-11-25T22:05:25.486Z,24.83
2022-11-25T22:07:54.835Z,20.88
2022-11-25T22:10:23.085Z,23.38
2022-11-25T22:12:51.251Z,21.42
2022-11-25T22:15:21.022Z,22.38
2022-11-25T22:17:49.708Z,25.90
2022-11-25T22:20:27.698Z,22.17
2022-11-25T22:22:56.060Z,22.33
2022-11-25T22:25:24.469Z,21.08
2022-11-25T22:27:52.390Z,24.40
2022-11-25T22:30:22.411Z,24.58
2022-11-25T22:32:59.794Z,28.20
2022-11-25T22:35:29.281Z,23.60
2022-11-25T22:37:57.157Z,24.40
2022-11-25T22:40:25.143Z,24.35
2022-11-25T22:42:53.466Z,24.13
2022-11-25T22:45:27.601Z,28.10
2022-11-25T22:47:55.587Z,24.92
2022-11-25T22:50:25.496Z,25.65
2022-11-25T22:52:55.650Z,25.17
2022-11-25T22:55:25.363Z,26.15
2022-11-25T22:57:56.449Z,24.20
2022-11-25T23:00:26.445Z,28.25
2022-11-25T23:02:56.473Z,28.92
2022-11-25T23:05:31.888Z,28.17
2022-11-25T23:08:02.836Z,30.45
2022-11-25T23:10:32.882Z,28.33
2022-11-25T23:13:00.699Z,27.83
2022-11-25T23:15:28.578Z,27.20
2022-11-25T23:17:57.886Z,23.88
2022-11-25T23:20:29.654Z,24.25
2022-11-25T23:22:57.584Z,27.27
2022-11-25T23:25:26.821Z,25.10
2022-11-25T23:27:54.728Z,33.50
2022-11-25T23:30:24.523Z,27.52
2022-11-25T23:32:54.307Z,30.52
2022-11-25T23:35:27.675Z,25.63
2022-11-25T23:37:56.933Z,28.23
2022-11-25T23:40:26.943Z,32.00
2022-11-25T23:42:55.498Z,36.90
2022-11-25T23:45:25.596Z,29.55
2022-11-25T23:47:54.899Z,32.10
2022-11-25T23:50:26.933Z,28.17
2022-11-25T23:52:57.399Z,29.00
2022-11-25T23:55:33.577Z,26.25
2022-11-25T23:58:02.130Z,29.73
